Time;durP1;ratioP1;P1;durP2;ratioP2;P2;SDS_P1;SDS_P2;PMS_P1;PMS_P2;Temp;Humidity;BMP_temperature;BMP_pressure;BME280_temperature;BME280_humidity;BME280_pressure;Samples;Min_cycle;Max_cycle;Signal;HPM_P1;HPM_P2
2022/08/04 00:00:05;;;;;;;4.70;1.70;;;;;;;23.33;53.20;96094.69;5060193;28;20043;-75
2022/08/04 00:02:58;;;;;;;2.38;1.40;;;;;;;23.29;53.70;96092.47;5076199;28;20498;-74
2022/08/04 00:05:39;;;;;;;4.35;1.75;;;;;;;23.35;53.85;96095.25;5076048;28;20078;-74
2022/08/04 00:08:14;;;;;;;4.35;1.70;;;;;;;23.42;53.41;96091.34;5076975;28;20082;-73
2022/08/04 00:10:47;;;;;;;4.25;1.60;;;;;;;23.42;53.81;96094.03;5076421;28;20501;-74
2022/08/04 00:13:14;;;;;;;4.35;1.45;;;;;;;23.42;54.08;96085.16;5076032;28;20047;-74
2022/08/04 00:15:41;;;;;;;2.47;1.15;;;;;;;23.33;54.67;96097.34;5074780;28;20481;-74
2022/08/04 00:18:08;;;;;;;2.65;1.38;;;;;;;23.26;55.40;96095.63;5075703;28;20149;-74
2022/08/04 00:20:39;;;;;;;3.10;1.55;;;;;;;23.21;55.86;96092.06;5074258;28;20040;-74
2022/08/04 00:23:05;;;;;;;5.75;2.35;;;;;;;23.21;56.28;96095.56;5093025;28;20032;-74
2022/08/04 00:25:31;;;;;;;4.03;2.20;;;;;;;23.18;56.52;96090.69;5077177;28;21299;-73
2022/08/04 00:28:00;;;;;;;3.72;1.90;;;;;;;23.18;56.91;96096.06;5075925;28;20036;-74
2022/08/04 00:30:27;;;;;;;5.40;1.95;;;;;;;23.08;57.57;96095.88;5057489;28;20029;-74
2022/08/04 00:32:55;;;;;;;4.00;1.90;;;;;;;23.06;57.97;96098.78;5076836;28;20028;-74
2022/08/04 00:35:22;;;;;;;3.85;1.95;;;;;;;23.05;58.14;96096.34;5075482;28;20062;-74
2022/08/04 00:37:48;;;;;;;2.83;1.80;;;;;;;23.01;58.49;96095.22;5092019;28;20494;-75
2022/08/04 00:40:23;;;;;;;2.78;1.52;;;;;;;22.95;59.56;96091.63;5075287;28;20735;-74
2022/08/04 00:43:05;;;;;;;5.03;1.52;;;;;;;23.01;59.47;96092.53;5075937;28;20046;-75
2022/08/04 00:46:06;;;;;;;3.05;1.33;;;;;;;23.03;59.59;96090.41;5073036;28;20064;-74
2022/08/04 00:48:41;;;;;;;2.92;1.75;;;;;;;23.03;59.80;96093.09;5076309;28;20040;-74
2022/08/04 00:51:29;;;;;;;5.05;1.60;;;;;;;23.01;60.59;96095.22;5076938;28;20048;-74
2022/08/04 00:54:21;;;;;;;4.53;1.55;;;;;;;23.01;60.78;96096.03;5094837;28;20047;-75
2022/08/04 00:57:09;;;;;;;2.90;1.58;;;;;;;23.00;60.91;96082.84;5076322;28;20044;-74
2022/08/04 00:59:54;;;;;;;7.20;1.77;;;;;;;22.95;61.93;96099.66;5076016;28;20036;-75
2022/08/04 01:02:52;;;;;;;2.63;1.50;;;;;;;22.88;62.17;96092.81;5093032;28;20035;-74
2022/08/04 01:05:26;;;;;;;3.92;1.83;;;;;;;22.83;62.65;96094.31;5072883;28;20691;-74
2022/08/04 01:08:07;;;;;;;3.10;1.40;;;;;;;22.80;63.07;96085.94;5078965;28;20040;-74
2022/08/04 01:10:39;;;;;;;2.88;1.70;;;;;;;22.77;63.42;96092.63;5078623;28;20028;-74
2022/08/04 01:13:38;;;;;;;3.15;1.40;;;;;;;22.77;63.75;96092.63;5079516;28;20050;-74
2022/08/04 01:16:07;;;;;;;2.97;1.65;;;;;;;22.77;63.61;96092.63;5088420;28;20051;-74
2022/08/04 01:18:44;;;;;;;6.13;1.98;;;;;;;22.68;64.54;96099.41;5080441;28;20093;-74
2022/08/04 01:21:19;;;;;;;6.38;1.90;;;;;;;22.66;65.03;96095.31;5077762;28;20163;-75
2022/08/04 01:24:09;;;;;;;3.45;1.55;;;;;;;22.43;67.85;96097.00;5077606;28;20028;-74
2022/08/04 01:26:41;;;;;;;5.65;2.28;;;;;;;22.36;67.34;96102.50;5062457;28;20043;-74
2022/08/04 01:29:10;;;;;;;2.78;1.67;;;;;;;22.17;69.52;96102.94;5061638;28;20043;-74
2022/08/04 01:32:02;;;;;;;5.65;1.67;;;;;;;22.19;69.01;96106.97;5079076;28;20685;-74
2022/08/04 01:34:35;;;;;;;4.82;1.85;;;;;;;22.18;68.90;96104.53;5079335;28;20035;-74
2022/08/04 01:37:15;;;;;;;3.60;1.63;;;;;;;22.07;69.84;96106.16;5078050;28;20674;-74
2022/08/04 01:40:03;;;;;;;2.28;1.60;;;;;;;21.97;70.87;96103.28;5078039;28;20085;-74
2022/08/04 01:42:32;;;;;;;3.53;1.65;;;;;;;21.95;70.99;96102.69;5078811;28;20039;-75
2022/08/04 01:45:04;;;;;;;4.03;1.42;;;;;;;21.89;71.60;96097.19;5080483;28;20028;-74
2022/08/04 01:47:34;;;;;;;4.43;2.08;;;;;;;21.87;71.81;96101.19;5075951;28;20042;-74
2022/08/04 01:50:10;;;;;;;5.80;2.10;;;;;;;21.82;72.58;96104.53;5080849;28;21305;-74
2022/08/04 01:52:39;;;;;;;2.85;1.52;;;;;;;21.76;72.81;96105.47;5070659;28;20048;-74
2022/08/04 01:55:08;;;;;;;3.40;1.80;;;;;;;21.75;73.45;96103.84;5079575;28;20062;-74
2022/08/04 01:57:49;;;;;;;4.10;1.70;;;;;;;21.78;73.56;96103.38;5078231;28;20063;-74
2022/08/04 02:00:18;;;;;;;3.83;1.63;;;;;;;21.74;73.86;96096.88;5079485;28;20036;-74
2022/08/04 02:02:45;;;;;;;3.03;1.73;;;;;;;21.65;74.80;96087.53;5082608;28;20040;-74
2022/08/04 02:05:14;;;;;;;4.95;1.63;;;;;;;21.71;74.63;96091.97;5080625;28;20118;-74
2022/08/04 02:07:59;;;;;;;5.43;1.70;;;;;;;21.71;74.77;96089.31;5081980;28;20533;-75
2022/08/04 02:10:52;;;;;;;4.95;1.80;;;;;;;21.75;74.86;96085.09;5082781;28;20032;-74
2022/08/04 02:13:43;;;;;;;4.38;2.10;;;;;;;21.78;74.72;96086.50;5083518;28;20040;-74
2022/08/04 02:16:18;;;;;;;5.15;1.90;;;;;;;21.81;74.36;96073.47;5079509;28;20052;-74
2022/08/04 02:19:01;;;;;;;2.83;1.52;;;;;;;21.78;74.69;96081.97;5082138;28;20110;-74
2022/08/04 02:21:29;;;;;;;4.22;1.90;;;;;;;21.76;75.04;96078.69;5082600;28;21424;-74
2022/08/04 02:24:01;;;;;;;4.18;1.67;;;;;;;21.77;75.28;96075.00;5080744;28;21619;-74
2022/08/04 02:26:31;;;;;;;3.17;1.58;;;;;;;21.79;75.39;96077.41;5081423;28;20092;-75
2022/08/04 02:28:59;;;;;;;4.22;1.70;;;;;;;21.69;75.77;96077.19;5080759;28;20037;-74
2022/08/04 02:31:28;;;;;;;4.75;1.80;;;;;;;21.63;76.70;96084.31;5080864;28;20098;-74
2022/08/04 02:34:02;;;;;;;3.42;1.67;;;;;;;21.64;76.57;96080.56;5081511;28;20032;-74
2022/08/04 02:36:40;;;;;;;2.50;1.60;;;;;;;21.56;77.65;96072.88;5079665;28;20093;-74
2022/08/04 02:39:08;;;;;;;2.50;1.42;;;;;;;21.48;78.13;96067.88;5073014;28;20035;-74
2022/08/04 02:41:34;;;;;;;3.67;1.75;;;;;;;21.44;78.69;96069.41;5075296;28;20035;-74
2022/08/04 02:44:06;;;;;;;3.05;1.80;;;;;;;21.37;79.08;96059.63;5080517;28;20060;-74
2022/08/04 02:46:34;;;;;;;4.72;1.80;;;;;;;21.41;79.10;96066.13;5078889;28;20047;-74
2022/08/04 02:49:06;;;;;;;3.40;1.55;;;;;;;21.34;79.56;96056.56;5081564;28;20036;-74
2022/08/04 02:51:53;;;;;;;6.38;2.00;;;;;;;21.35;79.78;96056.34;5081938;28;20687;-74
2022/08/04 02:54:24;;;;;;;4.03;1.88;;;;;;;21.27;80.60;96059.34;5080202;28;20055;-74
2022/08/04 02:56:52;;;;;;;4.88;2.05;;;;;;;21.27;80.60;96047.84;5079818;28;20036;-74
2022/08/04 02:59:22;;;;;;;4.65;1.85;;;;;;;21.21;81.24;96044.22;5081268;28;20056;-74
2022/08/04 03:01:47;;;;;;;3.00;1.77;;;;;;;21.18;81.75;96044.69;5081776;28;20378;-74
2022/08/04 03:04:21;;;;;;;3.97;1.90;;;;;;;21.13;82.28;96048.06;5078533;28;20031;-74
2022/08/04 03:07:05;;;;;;;2.65;1.65;;;;;;;21.17;81.68;96051.88;5075361;28;20521;-74
2022/08/04 03:09:37;;;;;;;3.78;1.98;;;;;;;21.22;81.34;96051.19;5076163;28;20123;-74
2022/08/04 03:12:18;;;;;;;2.80;1.90;;;;;;;21.25;80.88;96053.41;5077160;28;20039;-75
2022/08/04 03:15:25;;;;;;;2.97;1.80;;;;;;;21.29;80.38;96046.53;5076053;28;20032;-73
2022/08/04 03:18:13;;;;;;;3.85;1.77;;;;;;;21.31;79.88;96044.47;5078378;28;20035;-74
2022/08/04 03:20:59;;;;;;;2.17;1.40;;;;;;;21.34;79.61;96053.88;5077173;28;20025;-74
2022/08/04 03:23:55;;;;;;;5.10;2.00;;;;;;;21.35;79.25;96044.84;5076797;28;21357;-74
2022/08/04 03:26:39;;;;;;;3.67;1.65;;;;;;;21.34;79.14;96052.06;5077843;28;20040;-74
2022/08/04 03:29:29;;;;;;;5.03;1.92;;;;;;;21.33;78.74;96054.94;5078943;28;20059;-74
2022/08/04 03:32:03;;;;;;;3.28;1.95;;;;;;;21.34;78.73;96045.88;5093159;28;20194;-75
2022/08/04 03:35:00;;;;;;;3.53;1.80;;;;;;;21.31;78.59;96055.16;5076091;28;20032;-75
2022/08/04 03:37:44;;;;;;;4.15;1.92;;;;;;;21.20;79.70;96058.66;5075305;28;20036;-74
2022/08/04 03:40:27;;;;;;;3.03;1.60;;;;;;;21.14;79.89;96056.88;5078645;28;20038;-75
2022/08/04 03:42:55;;;;;;;3.50;1.80;;;;;;;21.08;80.29;96057.78;5077889;28;20043;-74
2022/08/04 03:45:53;;;;;;;4.63;1.88;;;;;;;21.06;79.89;96057.19;5076726;28;20042;-74
2022/08/04 03:48:51;;;;;;;6.70;2.10;;;;;;;21.00;80.91;96048.25;5060751;28;20043;-74
2022/08/04 03:55:29;;;;;;;2.83;1.60;;;;;;;20.90;81.01;96045.34;5063648;28;20055;-75
2022/08/04 03:58:27;;;;;;;4.03;1.92;;;;;;;20.73;82.81;96047.84;5078840;28;20704;-75
2022/08/04 04:01:20;;;;;;;3.67;1.70;;;;;;;20.78;81.53;96047.97;5055029;28;20047;-75
2022/08/04 04:04:02;;;;;;;3.00;1.65;;;;;;;20.79;81.65;96048.75;5078188;28;20097;-75
2022/08/04 04:06:52;;;;;;;2.85;1.60;;;;;;;20.78;81.13;96047.97;5077011;28;20028;-75
2022/08/04 04:09:49;;;;;;;3.33;2.08;;;;;;;20.78;81.61;96042.59;5074629;28;20072;-75
2022/08/04 04:12:40;;;;;;;2.22;1.50;;;;;;;20.75;81.87;96043.06;5069592;28;20047;-75
2022/08/04 04:15:27;;;;;;;4.28;1.75;;;;;;;20.75;81.77;96043.06;5076402;28;20024;-74
2022/08/04 04:18:14;;;;;;;2.70;1.52;;;;;;;20.82;82.15;96050.97;5076813;28;20042;-75
2022/08/04 04:20:43;;;;;;;3.17;1.52;;;;;;;20.87;82.03;96051.13;5076290;28;20101;-75
2022/08/04 04:23:24;;;;;;;4.57;1.88;;;;;;;20.90;81.78;96053.34;5075740;28;20036;-75
2022/08/04 04:26:11;;;;;;;7.80;1.80;;;;;;;20.97;81.18;96053.25;5078271;28;21343;-74
2022/08/04 04:28:57;;;;;;;6.35;2.05;;;;;;;21.07;80.90;96053.50;5080129;28;20032;-75
2022/08/04 04:32:04;;;;;;;2.25;1.20;;;;;;;21.04;82.24;96054.78;5080727;28;20054;-75
2022/08/04 04:34:39;;;;;;;3.40;2.03;;;;;;;21.01;83.22;96057.91;5065432;28;20051;-75
2022/08/04 04:37:24;;;;;;;3.88;1.60;;;;;;;21.01;83.95;96057.09;5072788;28;20044;-75
2022/08/04 04:40:01;;;;;;;3.80;1.60;;;;;;;21.07;82.59;96061.53;5081095;28;20077;-75
2022/08/04 04:42:52;;;;;;;3.28;1.73;;;;;;;21.05;83.41;96060.94;5078827;28;20032;-75
2022/08/04 04:45:32;;;;;;;2.42;1.58;;;;;;;21.15;81.28;96069.19;5079255;28;20020;-75
2022/08/04 04:48:30;;;;;;;5.90;2.25;;;;;;;21.26;80.41;96068.44;5082205;28;20036;-75
2022/08/04 04:51:26;;;;;;;2.40;1.60;;;;;;;21.25;82.51;96072.13;5079775;28;20048;-75
2022/08/04 04:54:22;;;;;;;6.43;1.80;;;;;;;21.24;82.84;96070.50;5080179;28;20030;-76
2022/08/04 04:57:08;;;;;;;6.88;2.17;;;;;;;21.27;84.77;96069.22;5079912;28;20068;-75
2022/08/04 04:59:41;;;;;;;2.88;1.80;;;;;;;21.41;84.47;96068.81;5083087;28;20392;-75
2022/08/04 05:02:12;;;;;;;10.32;2.42;;;;;;;21.49;83.96;96072.19;5081688;28;20387;-75
2022/08/04 05:05:06;;;;;;;3.17;1.60;;;;;;;21.53;84.56;96062.63;5081094;28;20115;-75
2022/08/04 05:07:51;;;;;;;2.58;1.67;;;;;;;21.76;83.86;96075.22;5079800;28;20094;-76
2022/08/04 05:10:48;;;;;;;5.90;1.90;;;;;;;21.86;83.13;96068.25;5081137;28;20042;-75
2022/08/04 05:13:53;;;;;;;4.60;1.73;;;;;;;21.85;83.20;96071.13;5063621;28;20092;-75
2022/08/04 05:16:25;;;;;;;3.33;1.63;;;;;;;22.08;81.37;96081.00;5058645;28;20044;-76
2022/08/04 05:19:13;;;;;;;3.53;1.80;;;;;;;22.21;80.52;96078.09;5071991;28;20071;-76
2022/08/04 05:21:47;;;;;;;9.38;1.90;;;;;;;22.21;79.01;96078.09;5079000;28;20035;-76
2022/08/04 05:24:16;;;;;;;4.45;1.88;;;;;;;22.02;81.50;96084.63;5081264;28;20036;-75
2022/08/04 05:26:51;;;;;;;4.30;1.80;;;;;;;22.02;82.99;96082.75;5080863;28;20028;-76
2022/08/04 05:29:31;;;;;;;4.10;1.67;;;;;;;22.28;78.55;96080.66;5090913;28;20322;-75
2022/08/04 05:32:00;;;;;;;4.38;2.08;;;;;;;22.10;81.48;96079.72;5082462;28;20038;-76
2022/08/04 05:34:42;;;;;;;2.90;1.92;;;;;;;22.34;78.60;96083.19;5081258;28;20111;-77
2022/08/04 05:37:14;;;;;;;6.27;2.23;;;;;;;22.29;78.64;96083.06;5079440;28;20378;-76
2022/08/04 05:39:48;;;;;;;4.28;1.75;;;;;;;22.69;77.46;96076.91;5081046;28;20154;-76
2022/08/04 05:42:14;;;;;;;4.90;2.03;;;;;;;22.78;74.47;96078.16;5080248;28;21360;-76
2022/08/04 05:44:42;;;;;;;9.43;2.00;;;;;;;22.99;74.51;96075.84;5080918;28;20103;-75
2022/08/04 05:47:11;;;;;;;6.43;3.72;;;;;;;23.71;71.28;96076.00;5077991;28;20524;-76
2022/08/04 05:49:39;;;;;;;5.82;2.08;;;;;;;23.57;72.68;96080.03;5089011;28;20036;-76
2022/08/04 05:52:08;;;;;;;4.93;2.35;;;;;;;24.13;69.10;96074.69;5095953;28;20032;-76
2022/08/04 05:54:36;;;;;;;4.63;2.15;;;;;;;24.62;65.96;96074.78;5079782;28;20024;-76
2022/08/04 05:57:05;;;;;;;4.60;2.10;;;;;;;24.57;68.11;96072.84;5081188;28;20553;-76
2022/08/04 05:59:35;;;;;;;5.40;1.90;;;;;;;24.84;65.99;96072.03;5070612;28;20051;-76
2022/08/04 06:02:01;;;;;;;3.20;1.77;;;;;;;25.28;63.39;96074.63;5061735;28;20043;-77
2022/08/04 06:04:33;;;;;;;4.28;2.38;;;;;;;25.09;64.14;96080.38;5080854;28;20546;-76
2022/08/04 06:06:59;;;;;;;8.13;2.37;;;;;;;25.20;63.84;96081.31;5077340;28;21500;-76
2022/08/04 06:09:25;;;;;;;2.95;1.98;;;;;;;25.45;64.63;96069.13;5062694;28;20473;-76
2022/08/04 06:11:52;;;;;;;4.68;1.95;;;;;;;25.15;66.21;96079.38;5077970;28;20032;-76
2022/08/04 06:14:20;;;;;;;4.60;2.22;;;;;;;25.39;64.82;96070.97;5080335;28;20440;-76
2022/08/04 06:16:48;;;;;;;2.95;1.83;;;;;;;25.76;63.75;96078.25;5081753;28;20386;-76
2022/08/04 06:19:16;;;;;;;6.75;2.50;;;;;;;25.45;64.69;96072.63;5061469;28;20386;-76
2022/08/04 06:21:47;;;;;;;3.67;1.90;;;;;;;25.96;59.16;96069.53;5077421;28;20085;-76
2022/08/04 06:24:17;;;;;;;3.58;1.90;;;;;;;26.08;59.07;96078.19;5081050;28;20119;-76
2022/08/04 06:26:46;;;;;;;4.40;2.05;;;;;;;26.50;57.07;96078.16;5077841;28;20033;-76
2022/08/04 06:29:22;;;;;;;4.80;2.30;;;;;;;26.78;53.93;96078.78;5080578;28;20207;-76
2022/08/04 06:31:57;;;;;;;3.05;1.60;;;;;;;26.78;54.67;96076.88;5078935;28;20060;-76
2022/08/04 06:34:24;;;;;;;5.75;1.80;;;;;;;27.04;53.15;96082.34;5071018;28;21440;-76
2022/08/04 06:36:51;;;;;;;3.33;1.85;;;;;;;27.33;52.57;96076.47;5078852;28;20067;-73
2022/08/04 06:39:18;;;;;;;4.63;2.55;;;;;;;27.58;51.76;96073.75;5079771;28;20052;-73
2022/08/04 06:41:44;;;;;;;2.97;1.77;;;;;;;26.94;52.37;96080.44;5078058;28;20043;-74
2022/08/04 06:44:10;;;;;;;2.67;1.75;;;;;;;27.77;50.72;96074.06;5063528;28;20035;-74
2022/08/04 06:46:39;;;;;;;3.65;2.00;;;;;;;27.92;50.29;96074.00;5077246;28;20081;-74
2022/08/04 06:49:06;;;;;;;4.22;2.22;;;;;;;27.98;48.75;96077.53;5079262;28;20089;-73
2022/08/04 06:51:35;;;;;;;4.53;1.80;;;;;;;28.14;50.08;96073.72;5095456;28;20028;-76
2022/08/04 06:54:01;;;;;;;3.88;2.13;;;;;;;28.16;46.88;96078.81;5080482;28;20093;-75
2022/08/04 06:56:29;;;;;;;3.58;2.05;;;;;;;28.38;46.90;96079.28;5085703;28;20128;-75
2022/08/04 06:58:56;;;;;;;3.83;2.03;;;;;;;28.59;46.27;96082.75;5085807;28;20393;-75
2022/08/04 07:01:24;;;;;;;5.22;2.30;;;;;;;28.77;43.68;96078.63;5084748;28;20107;-76
2022/08/04 07:03:51;;;;;;;3.33;1.55;;;;;;;28.47;43.00;96082.28;5083213;28;20028;-75
2022/08/04 07:06:17;;;;;;;3.90;1.85;;;;;;;29.46;42.61;96079.53;5084215;28;20028;-76
2022/08/04 07:08:44;;;;;;;3.10;1.92;;;;;;;29.06;42.59;96077.94;5077036;28;20416;-75
2022/08/04 07:11:11;;;;;;;4.43;1.95;;;;;;;29.39;42.11;96073.63;5084391;28;20036;-75
2022/08/04 07:13:37;;;;;;;3.85;2.22;;;;;;;29.64;41.78;96075.34;5080025;28;20501;-75
2022/08/04 07:16:05;;;;;;;3.88;1.83;;;;;;;29.97;41.08;96073.66;5086676;28;20158;-75
2022/08/04 07:18:30;;;;;;;3.97;1.70;;;;;;;30.41;39.09;96078.09;5085752;28;20362;-76
2022/08/04 07:20:56;;;;;;;4.22;1.77;;;;;;;29.09;41.08;96077.38;5086083;28;20058;-75
2022/08/04 07:23:25;;;;;;;3.08;1.60;;;;;;;30.08;38.32;96074.41;5086137;28;20065;-75
2022/08/04 07:25:54;;;;;;;2.35;1.52;;;;;;;30.38;38.25;96077.88;5085547;28;20040;-75
2022/08/04 07:28:22;;;;;;;3.55;1.77;;;;;;;31.17;36.49;96070.06;5067656;28;20560;-76
2022/08/04 07:30:48;;;;;;;4.50;2.50;;;;;;;31.34;35.80;96067.66;5082457;28;20040;-76
2022/08/04 07:33:18;;;;;;;5.32;2.10;;;;;;;31.13;34.72;96074.47;5086734;28;20068;-75
2022/08/04 07:35:51;;;;;;;3.40;1.77;;;;;;;31.70;34.19;96070.59;5085029;28;20420;-76
2022/08/04 07:38:16;;;;;;;4.88;1.90;;;;;;;31.84;34.18;96069.81;5086433;28;20039;-76
2022/08/04 07:40:43;;;;;;;3.58;1.75;;;;;;;32.34;33.08;96067.28;5083567;28;20036;-75
2022/08/04 07:43:09;;;;;;;4.32;1.45;;;;;;;31.81;33.81;96065.78;5085571;28;20027;-76
2022/08/04 07:45:35;;;;;;;8.35;1.92;;;;;;;31.02;34.44;96079.25;5084263;28;20059;-75
2022/08/04 07:48:06;;;;;;;4.10;1.33;;;;;;;31.87;33.89;96069.22;5085682;28;20077;-76
2022/08/04 07:50:33;;;;;;;2.13;1.40;;;;;;;31.28;34.02;96070.72;5062298;28;20027;-76
2022/08/04 07:53:00;;;;;;;3.97;1.85;;;;;;;31.83;34.37;96063.56;5083953;28;20544;-76
2022/08/04 07:55:27;;;;;;;3.65;1.67;;;;;;;31.27;34.24;96069.91;5076095;28;20024;-76
2022/08/04 07:57:53;;;;;;;3.05;1.65;;;;;;;32.06;34.24;96061.84;5079945;28;20036;-76
2022/08/04 08:00:19;;;;;;;5.20;1.70;;;;;;;33.20;32.49;96061.13;5083953;28;20790;-76
2022/08/04 08:02:48;;;;;;;2.63;1.58;;;;;;;32.94;32.57;96058.97;5062868;28;20021;-76
2022/08/04 08:05:17;;;;;;;4.93;2.10;;;;;;;32.59;33.42;96069.50;5083326;28;20086;-75
2022/08/04 08:07:50;;;;;;;2.83;1.80;;;;;;;32.61;32.23;96070.00;5083107;28;20032;-76
2022/08/04 08:10:16;;;;;;;4.13;1.85;;;;;;;32.63;32.88;96062.34;5086484;28;20028;-77
2022/08/04 08:12:43;;;;;;;3.53;2.13;;;;;;;32.62;32.88;96066.16;5067956;28;20051;-76
2022/08/04 08:15:14;;;;;;;6.82;2.30;;;;;;;33.30;31.47;96064.44;5084048;28;20028;-76
2022/08/04 08:17:40;;;;;;;2.67;1.55;;;;;;;32.88;31.60;96057.47;5081184;28;20405;-75
2022/08/04 08:20:06;;;;;;;7.35;1.92;;;;;;;32.89;31.61;96061.78;5084756;28;20028;-76
2022/08/04 08:22:32;;;;;;;3.05;1.90;;;;;;;33.46;30.65;96053.13;5065876;28;20066;-76
2022/08/04 08:24:58;;;;;;;6.45;1.95;;;;;;;34.06;30.11;96057.41;5084131;28;20044;-76
2022/08/04 08:27:25;;;;;;;4.03;1.98;;;;;;;34.38;29.93;96054.31;5077095;28;20035;-76
2022/08/04 08:29:51;;;;;;;5.85;1.80;;;;;;;33.71;29.99;96057.19;5084974;28;20508;-75
2022/08/04 08:32:17;;;;;;;2.95;1.80;;;;;;;34.57;29.05;96050.53;5079957;28;20044;-76
2022/08/04 08:34:44;;;;;;;2.95;1.83;;;;;;;33.70;29.68;96052.84;5075459;28;20035;-76
2022/08/04 08:37:33;;;;;;;4.70;1.88;;;;;;;33.53;30.36;96053.53;5079934;28;20085;-76
2022/08/04 08:40:27;;;;;;;4.10;1.73;;;;;;;34.21;28.56;96051.53;5079534;28;20115;-76
2022/08/04 08:43:10;;;;;;;2.67;1.70;;;;;;;33.27;29.28;96056.06;5076171;28;20036;-76
2022/08/04 08:45:54;;;;;;;5.25;1.85;;;;;;;33.38;29.78;96045.72;5083080;28;20032;-76
2022/08/04 08:48:53;;;;;;;2.97;1.63;;;;;;;33.74;29.75;96053.84;5083147;28;20032;-76
2022/08/04 08:51:23;;;;;;;6.00;2.22;;;;;;;33.22;30.18;96048.00;5083523;28;20074;-76
2022/08/04 08:53:55;;;;;;;6.97;1.85;;;;;;;33.81;29.12;96061.59;5082418;28;20032;-76
2022/08/04 08:56:44;;;;;;;9.47;2.60;;;;;;;34.48;28.23;96048.56;5080784;28;20103;-76
2022/08/04 08:59:16;;;;;;;6.53;1.95;;;;;;;35.24;26.81;96055.59;5084501;28;20796;-76
2022/08/04 09:01:45;;;;;;;5.68;1.52;;;;;;;35.96;26.68;96043.13;5080073;28;20032;-76
2022/08/04 09:04:48;;;;;;;4.13;1.60;;;;;;;35.31;26.25;96046.91;5083904;28;20100;-76
2022/08/04 09:07:17;;;;;;;3.67;1.75;;;;;;;35.35;26.52;96054.19;5077064;28;20069;-76
2022/08/04 09:09:46;;;;;;;2.67;1.70;;;;;;;35.61;25.20;96048.69;5085716;28;20492;-76
2022/08/04 09:12:31;;;;;;;3.20;1.45;;;;;;;36.45;24.04;96053.72;5074128;28;20040;-76
2022/08/04 09:15:23;;;;;;;2.47;1.50;;;;;;;35.62;25.34;96050.31;5076955;28;20026;-77
2022/08/04 09:18:33;;;;;;;3.15;1.52;;;;;;;36.74;23.12;96053.75;5091210;28;20040;-76
2022/08/04 09:21:09;;;;;;;3.60;1.35;;;;;;;37.08;22.92;96053.88;5086221;28;20052;-77
2022/08/04 09:23:59;;;;;;;2.35;1.38;;;;;;;36.95;22.19;96058.47;5081365;28;20028;-76
2022/08/04 09:26:37;;;;;;;4.25;1.30;;;;;;;37.13;22.30;96050.94;5086689;28;20084;-76
2022/08/04 09:29:21;;;;;;;4.10;1.60;;;;;;;37.29;21.65;96057.41;5071226;28;20058;-76
2022/08/04 09:32:03;;;;;;;3.78;1.42;;;;;;;36.63;22.67;96060.78;5065447;28;20066;-76
2022/08/04 09:34:38;;;;;;;2.25;1.40;;;;;;;38.00;21.74;96061.94;5087994;28;20035;-75
2022/08/04 09:37:13;;;;;;;3.35;1.77;;;;;;;37.97;21.53;96051.66;5087111;28;20036;-76
2022/08/04 09:39:48;;;;;;;3.10;1.50;;;;;;;37.80;21.32;96049.06;5084405;28;20032;-76
2022/08/04 09:43:00;;;;;;;5.03;1.52;;;;;;;37.46;21.96;96054.56;5088407;28;20032;-76
2022/08/04 09:45:39;;;;;;;2.70;1.60;;;;;;;37.42;21.68;96053.56;5069489;28;20032;-76
2022/08/04 09:48:37;;;;;;;5.85;1.65;;;;;;;38.19;21.08;96053.94;5088885;28;20043;-76
2022/08/04 09:51:42;;;;;;;1.50;1.25;;;;;;;38.95;19.89;96050.88;5069550;28;20040;-77
2022/08/04 09:54:16;;;;;;;1.60;1.20;;;;;;;38.76;20.66;96054.19;5078329;28;20165;-76
2022/08/04 09:56:53;;;;;;;3.63;1.60;;;;;;;38.43;20.65;96053.22;5080483;28;20400;-77
2022/08/04 09:59:40;;;;;;;2.35;1.30;;;;;;;38.89;20.57;96047.56;5087273;28;20072;-77
2022/08/04 10:02:08;;;;;;;5.40;1.83;;;;;;;40.00;19.44;96039.69;5088992;28;20043;-77
2022/08/04 10:04:35;;;;;;;2.67;1.52;;;;;;;38.42;20.98;96042.56;5084710;28;20035;-77
2022/08/04 10:07:23;;;;;;;3.00;1.27;;;;;;;38.82;20.37;96041.84;5065702;28;20032;-77
2022/08/04 10:10:07;;;;;;;1.33;1.23;;;;;;;39.72;19.54;96034.25;5081308;28;20066;-76
2022/08/04 10:12:51;;;;;;;2.78;1.40;;;;;;;39.63;19.23;96037.13;5085722;28;20559;-77
2022/08/04 10:15:41;;;;;;;2.05;1.35;;;;;;;39.85;19.45;96032.25;5087144;28;20051;-77
2022/08/04 10:18:22;;;;;;;3.35;1.77;;;;;;;38.55;20.75;96033.16;5087989;28;20040;-76
2022/08/04 10:21:00;;;;;;;3.45;1.38;;;;;;;38.41;20.74;96029.97;5080045;28;20085;-77
2022/08/04 10:23:46;;;;;;;2.30;1.50;;;;;;;39.64;19.68;96026.91;5087008;28;20032;-77
2022/08/04 10:26:28;;;;;;;2.70;2.13;;;;;;;38.05;21.08;96019.72;5087409;28;20036;-77
2022/08/04 10:29:21;;;;;;;2.33;1.58;;;;;;;40.51;19.62;96010.31;5083841;28;20036;-77
2022/08/04 10:31:59;;;;;;;2.33;1.63;;;;;;;39.98;19.99;96012.53;5075750;28;20046;-77
2022/08/04 10:34:35;;;;;;;2.05;1.63;;;;;;;40.31;18.95;96011.38;5081822;28;20112;-77
2022/08/04 10:37:10;;;;;;;4.38;1.70;;;;;;;39.30;19.82;96020.88;5085576;28;20089;-77
2022/08/04 10:42:55;;;;;;;3.58;1.73;;;;;;;39.23;20.23;96018.69;5079810;28;20039;-77
2022/08/04 10:45:26;;;;;;;1.90;1.70;;;;;;;39.52;20.54;96017.59;5085085;28;20028;-77
2022/08/04 10:48:09;;;;;;;2.20;2.00;;;;;;;40.70;19.34;96000.50;5085441;28;20427;-77
2022/08/04 10:50:39;;;;;;;2.33;1.65;;;;;;;40.01;20.19;96000.81;5079658;28;20029;-77
2022/08/04 10:53:27;;;;;;;2.72;1.65;;;;;;;39.93;19.77;96009.22;5080830;28;20397;-77
2022/08/04 10:56:09;;;;;;;2.80;1.63;;;;;;;40.42;19.26;96001.41;5079440;28;20442;-77
2022/08/04 10:58:45;;;;;;;6.15;1.67;;;;;;;39.45;20.37;96005.59;5083654;28;20063;-77
2022/08/04 11:01:25;;;;;;;2.65;1.67;;;;;;;39.63;19.99;96009.59;5077429;28;20059;-77
2022/08/04 11:04:02;;;;;;;2.45;1.70;;;;;;;39.67;20.19;96009.69;5085544;28;20035;-77
2022/08/04 11:06:29;;;;;;;1.65;1.50;;;;;;;39.61;20.27;96006.44;5083349;28;20032;-77
2022/08/04 11:08:57;;;;;;;6.20;2.38;;;;;;;39.58;19.71;96007.94;5080124;28;20059;-77
2022/08/04 11:11:34;;;;;;;3.03;2.05;;;;;;;40.15;19.57;95996.84;5082618;28;20065;-77
2022/08/04 11:14:06;;;;;;;3.58;1.67;;;;;;;39.05;21.17;96001.69;5085719;28;20896;-77
2022/08/04 11:16:41;;;;;;;3.10;1.48;;;;;;;39.23;20.92;95996.69;5084940;28;20539;-77
2022/08/04 11:19:35;;;;;;;3.47;1.90;;;;;;;40.69;19.28;95994.19;5080500;28;20047;-77
2022/08/04 11:22:18;;;;;;;2.80;1.95;;;;;;;40.24;19.86;96001.00;5063579;28;20119;-77
2022/08/04 11:24:52;;;;;;;3.45;1.85;;;;;;;39.90;20.17;96002.47;5074821;28;20043;-77
2022/08/04 11:27:28;;;;;;;3.03;1.70;;;;;;;40.30;20.52;95993.25;5082133;28;20035;-77
2022/08/04 11:30:04;;;;;;;3.20;2.10;;;;;;;39.88;20.01;96001.25;5084584;28;20042;-77
2022/08/04 11:33:20;;;;;;;2.72;1.80;;;;;;;39.79;20.04;95995.91;5078070;28;20058;-77
2022/08/04 11:36:00;;;;;;;4.50;1.92;;;;;;;40.23;19.69;95993.09;5077464;28;20032;-76
2022/08/04 11:38:42;;;;;;;2.63;1.65;;;;;;;40.70;19.84;95990.25;5086367;28;20101;-76
2022/08/04 11:41:10;;;;;;;2.03;1.80;;;;;;;40.31;19.78;95986.56;5077647;28;20044;-77
2022/08/04 11:43:57;;;;;;;2.40;1.98;;;;;;;40.60;19.77;95979.00;5084964;28;20031;-77
2022/08/04 11:46:43;;;;;;;3.10;1.70;;;;;;;41.33;18.83;95983.72;5081748;28;20031;-77
2022/08/04 11:49:34;;;;;;;3.60;1.95;;;;;;;41.69;19.23;95984.41;5081293;28;20118;-77
2022/08/04 11:52:02;;;;;;;2.38;1.50;;;;;;;42.06;18.54;95986.66;5079857;28;20039;-77
2022/08/04 11:54:29;;;;;;;2.90;1.90;;;;;;;42.35;18.35;95982.38;5086800;28;20106;-77
2022/08/04 11:56:56;;;;;;;3.35;1.80;;;;;;;41.50;18.59;95987.22;5085609;28;20051;-77
2022/08/04 11:59:23;;;;;;;4.18;1.83;;;;;;;41.94;17.85;95984.06;5085754;28;20028;-77
2022/08/04 12:01:58;;;;;;;2.95;1.90;;;;;;;41.29;17.79;95988.38;5082008;28;20108;-77
2022/08/04 12:04:33;;;;;;;2.70;2.00;;;;;;;40.12;19.12;95989.25;5084906;28;20032;-77
2022/08/04 12:07:31;;;;;;;2.78;1.90;;;;;;;40.96;18.12;95983.31;5074995;28;20025;-77
2022/08/04 12:10:34;;;;;;;2.90;1.80;;;;;;;40.93;18.64;95984.06;5034317;28;20132;-77
2022/08/04 12:13:17;;;;;;;3.03;2.10;;;;;;;40.38;19.17;95986.75;5082940;28;20028;-77
2022/08/04 12:15:55;;;;;;;2.80;2.20;;;;;;;40.00;19.86;95981.88;5082312;28;20028;-77
2022/08/04 12:18:23;;;;;;;3.42;1.80;;;;;;;40.33;19.28;95977.97;5084464;28;20042;-77
2022/08/04 12:20:57;;;;;;;2.60;1.80;;;;;;;41.95;18.04;95972.63;5085983;28;20031;-77
2022/08/04 12:23:29;;;;;;;3.53;1.63;;;;;;;41.56;18.47;95978.25;5080507;28;20154;-77
2022/08/04 12:26:01;;;;;;;3.58;2.30;;;;;;;41.81;18.29;95966.84;5084547;28;20122;-77